sensor_id;sensor_type;location;lat;lon;timestamp;temperature;humidity
27306;DHT22;14792;50.886;6.468;2024-03-06T00:02:06;6.00;99.90
27306;DHT22;14792;50.886;6.468;2024-03-06T00:05:07;6.00;99.90
27306;DHT22;14792;50.886;6.468;2024-03-06T00:08:09;6.00;99.90
27306;DHT22;14792;50.886;6.468;2024-03-06T00:11:11;5.90;99.90
27306;DHT22;14792;50.886;6.468;2024-03-06T00:14:12;5.80;99.90
27306;DHT22;14792;50.886;6.468;2024-03-06T00:17:14;5.80;99.90
27306;DHT22;14792;50.886;6.468;2024-03-06T00:20:15;5.70;99.90
27306;DHT22;14792;50.886;6.468;2024-03-06T00:23:17;5.60;99.90
27306;DHT22;14792;50.886;6.468;2024-03-06T00:26:19;5.50;99.90
27306;DHT22;14792;50.886;6.468;2024-03-06T00:29:20;5.50;99.90
27306;DHT22;14792;50.886;6.468;2024-03-06T00:32:22;5.30;99.90
27306;DHT22;14792;50.886;6.468;2024-03-06T00:35:23;5.20;99.90
27306;DHT22;14792;50.886;6.468;2024-03-06T00:38:25;5.20;99.90
27306;DHT22;14792;50.886;6.468;2024-03-06T00:41:27;5.20;99.90
27306;DHT22;14792;50.886;6.468;2024-03-06T00:44:29;5.30;99.90
27306;DHT22;14792;50.886;6.468;2024-03-06T00:47:30;5.20;99.90
27306;DHT22;14792;50.886;6.468;2024-03-06T00:50:31;5.00;99.90
27306;DHT22;14792;50.886;6.468;2024-03-06T00:53:36;4.90;99.90
27306;DHT22;14792;50.886;6.468;2024-03-06T00:56:38;4.90;99.90
27306;DHT22;14792;50.886;6.468;2024-03-06T00:59:39;4.90;99.90
27306;DHT22;14792;50.886;6.468;2024-03-06T01:02:41;4.80;99.90
27306;DHT22;14792;50.886;6.468;2024-03-06T01:05:42;4.80;99.90
27306;DHT22;14792;50.886;6.468;2024-03-06T01:08:44;4.70;99.90
27306;DHT22;14792;50.886;6.468;2024-03-06T01:11:45;4.80;99.90
27306;DHT22;14792;50.886;6.468;2024-03-06T01:14:47;4.70;99.90
27306;DHT22;14792;50.886;6.468;2024-03-06T01:17:49;4.60;99.90
27306;DHT22;14792;50.886;6.468;2024-03-06T01:20:50;4.60;99.90
27306;DHT22;14792;50.886;6.468;2024-03-06T01:23:52;4.50;99.90
27306;DHT22;14792;50.886;6.468;2024-03-06T01:26:53;4.60;99.90
27306;DHT22;14792;50.886;6.468;2024-03-06T01:29:55;4.60;99.90
27306;DHT22;14792;50.886;6.468;2024-03-06T01:32:56;4.50;99.90
27306;DHT22;14792;50.886;6.468;2024-03-06T01:35:59;4.50;99.90
27306;DHT22;14792;50.886;6.468;2024-03-06T01:39:01;4.50;99.90
27306;DHT22;14792;50.886;6.468;2024-03-06T01:42:02;4.30;99.90
27306;DHT22;14792;50.886;6.468;2024-03-06T01:45:04;4.30;99.90
27306;DHT22;14792;50.886;6.468;2024-03-06T01:48:06;4.20;99.90
27306;DHT22;14792;50.886;6.468;2024-03-06T01:51:07;4.20;99.90
27306;DHT22;14792;50.886;6.468;2024-03-06T01:54:09;4.10;99.90
27306;DHT22;14792;50.886;6.468;2024-03-06T01:57:10;4.10;99.90
27306;DHT22;14792;50.886;6.468;2024-03-06T02:00:12;4.10;99.90
27306;DHT22;14792;50.886;6.468;2024-03-06T02:03:14;4.10;99.90
27306;DHT22;14792;50.886;6.468;2024-03-06T02:06:15;4.00;99.90
27306;DHT22;14792;50.886;6.468;2024-03-06T02:09:17;3.90;99.90
27306;DHT22;14792;50.886;6.468;2024-03-06T02:12:18;3.90;99.90
27306;DHT22;14792;50.886;6.468;2024-03-06T02:15:20;3.80;99.90
27306;DHT22;14792;50.886;6.468;2024-03-06T02:18:22;3.80;99.90
27306;DHT22;14792;50.886;6.468;2024-03-06T02:21:24;3.90;99.90
27306;DHT22;14792;50.886;6.468;2024-03-06T02:24:25;3.90;99.90
27306;DHT22;14792;50.886;6.468;2024-03-06T02:27:26;3.80;99.90
27306;DHT22;14792;50.886;6.468;2024-03-06T02:30:28;3.80;99.90
27306;DHT22;14792;50.886;6.468;2024-03-06T02:33:29;3.70;99.90
27306;DHT22;14792;50.886;6.468;2024-03-06T02:36:31;3.70;99.90
27306;DHT22;14792;50.886;6.468;2024-03-06T02:39:33;3.60;99.90
27306;DHT22;14792;50.886;6.468;2024-03-06T02:42:34;3.70;99.90
27306;DHT22;14792;50.886;6.468;2024-03-06T02:45:36;3.70;99.90
27306;DHT22;14792;50.886;6.468;2024-03-06T02:48:37;3.70;99.90
27306;DHT22;14792;50.886;6.468;2024-03-06T02:51:39;3.80;99.90
27306;DHT22;14792;50.886;6.468;2024-03-06T02:54:41;3.70;99.90
27306;DHT22;14792;50.886;6.468;2024-03-06T02:57:42;3.70;99.90
27306;DHT22;14792;50.886;6.468;2024-03-06T03:01:17;3.60;99.90
27306;DHT22;14792;50.886;6.468;2024-03-06T03:04:19;3.60;99.90
27306;DHT22;14792;50.886;6.468;2024-03-06T03:07:20;3.50;99.90
27306;DHT22;14792;50.886;6.468;2024-03-06T03:10:22;3.50;99.90
27306;DHT22;14792;50.886;6.468;2024-03-06T03:13:24;3.60;99.90
27306;DHT22;14792;50.886;6.468;2024-03-06T03:16:25;3.50;99.90
27306;DHT22;14792;50.886;6.468;2024-03-06T03:19:27;3.50;99.90
27306;DHT22;14792;50.886;6.468;2024-03-06T03:22:29;3.50;99.90
27306;DHT22;14792;50.886;6.468;2024-03-06T03:25:31;3.40;99.90
27306;DHT22;14792;50.886;6.468;2024-03-06T03:28:32;3.40;99.90
27306;DHT22;14792;50.886;6.468;2024-03-06T03:31:34;3.40;99.90
27306;DHT22;14792;50.886;6.468;2024-03-06T03:34:36;3.40;99.90
27306;DHT22;14792;50.886;6.468;2024-03-06T03:37:37;3.30;99.90
27306;DHT22;14792;50.886;6.468;2024-03-06T03:40:39;3.20;99.90
27306;DHT22;14792;50.886;6.468;2024-03-06T03:43:41;3.10;99.90
27306;DHT22;14792;50.886;6.468;2024-03-06T03:46:42;3.20;99.90
27306;DHT22;14792;50.886;6.468;2024-03-06T03:49:44;3.10;99.90
27306;DHT22;14792;50.886;6.468;2024-03-06T03:52:45;3.20;99.90
27306;DHT22;14792;50.886;6.468;2024-03-06T03:55:47;3.20;99.90
27306;DHT22;14792;50.886;6.468;2024-03-06T03:58:48;3.10;99.90
27306;DHT22;14792;50.886;6.468;2024-03-06T04:01:50;3.10;99.90
27306;DHT22;14792;50.886;6.468;2024-03-06T04:04:52;3.00;99.90
27306;DHT22;14792;50.886;6.468;2024-03-06T04:07:53;2.90;99.90
27306;DHT22;14792;50.886;6.468;2024-03-06T04:10:55;3.00;99.90
27306;DHT22;14792;50.886;6.468;2024-03-06T04:13:56;3.10;99.90
27306;DHT22;14792;50.886;6.468;2024-03-06T04:17:16;3.10;99.90
27306;DHT22;14792;50.886;6.468;2024-03-06T04:20:18;3.10;99.90
27306;DHT22;14792;50.886;6.468;2024-03-06T04:23:19;3.20;99.90
27306;DHT22;14792;50.886;6.468;2024-03-06T04:26:21;3.20;99.90
27306;DHT22;14792;50.886;6.468;2024-03-06T04:29:22;3.20;99.90
27306;DHT22;14792;50.886;6.468;2024-03-06T04:32:24;3.20;99.90
27306;DHT22;14792;50.886;6.468;2024-03-06T04:35:26;3.30;99.90
27306;DHT22;14792;50.886;6.468;2024-03-06T04:38:27;3.40;99.90
27306;DHT22;14792;50.886;6.468;2024-03-06T04:41:29;3.40;99.90
27306;DHT22;14792;50.886;6.468;2024-03-06T04:44:33;3.30;99.90
27306;DHT22;14792;50.886;6.468;2024-03-06T04:47:32;3.30;99.90
27306;DHT22;14792;50.886;6.468;2024-03-06T04:50:33;3.40;99.90
27306;DHT22;14792;50.886;6.468;2024-03-06T04:53:35;3.40;99.90
27306;DHT22;14792;50.886;6.468;2024-03-06T04:56:37;3.40;99.90
27306;DHT22;14792;50.886;6.468;2024-03-06T04:59:38;3.40;99.90
27306;DHT22;14792;50.886;6.468;2024-03-06T05:02:40;3.40;99.90
27306;DHT22;14792;50.886;6.468;2024-03-06T05:05:41;3.50;99.90
27306;DHT22;14792;50.886;6.468;2024-03-06T05:08:43;3.40;99.90
27306;DHT22;14792;50.886;6.468;2024-03-06T05:11:45;3.30;99.90
27306;DHT22;14792;50.886;6.468;2024-03-06T05:14:46;3.10;99.90
27306;DHT22;14792;50.886;6.468;2024-03-06T05:17:48;3.10;99.90
27306;DHT22;14792;50.886;6.468;2024-03-06T05:20:49;3.20;99.90
27306;DHT22;14792;50.886;6.468;2024-03-06T05:23:51;3.20;99.90
27306;DHT22;14792;50.886;6.468;2024-03-06T05:26:52;3.10;99.90
27306;DHT22;14792;50.886;6.468;2024-03-06T05:29:54;3.00;99.90
27306;DHT22;14792;50.886;6.468;2024-03-06T05:32:56;2.90;99.90
27306;DHT22;14792;50.886;6.468;2024-03-06T05:35:57;2.70;99.90
27306;DHT22;14792;50.886;6.468;2024-03-06T05:38:59;2.70;99.90
27306;DHT22;14792;50.886;6.468;2024-03-06T05:42:01;2.60;99.90
27306;DHT22;14792;50.886;6.468;2024-03-06T05:45:02;2.70;99.90
27306;DHT22;14792;50.886;6.468;2024-03-06T05:48:04;2.70;99.90
27306;DHT22;14792;50.886;6.468;2024-03-06T05:51:05;2.70;99.90
27306;DHT22;14792;50.886;6.468;2024-03-06T05:54:07;2.60;99.90
27306;DHT22;14792;50.886;6.468;2024-03-06T05:57:08;2.60;99.90
27306;DHT22;14792;50.886;6.468;2024-03-06T06:00:10;2.60;99.90
27306;DHT22;14792;50.886;6.468;2024-03-06T06:03:12;2.60;99.90
27306;DHT22;14792;50.886;6.468;2024-03-06T06:06:16;2.60;99.90
27306;DHT22;14792;50.886;6.468;2024-03-06T06:09:18;2.70;99.90
27306;DHT22;14792;50.886;6.468;2024-03-06T06:12:19;2.70;99.90
27306;DHT22;14792;50.886;6.468;2024-03-06T06:15:21;2.80;99.90
27306;DHT22;14792;50.886;6.468;2024-03-06T06:18:22;2.90;99.90
27306;DHT22;14792;50.886;6.468;2024-03-06T06:21:24;2.90;99.90
27306;DHT22;14792;50.886;6.468;2024-03-06T06:24:26;2.90;99.90
27306;DHT22;14792;50.886;6.468;2024-03-06T06:27:36;3.00;99.90
27306;DHT22;14792;50.886;6.468;2024-03-06T06:30:29;3.00;99.90
27306;DHT22;14792;50.886;6.468;2024-03-06T06:33:31;3.10;99.90
27306;DHT22;14792;50.886;6.468;2024-03-06T06:36:32;3.20;99.90
27306;DHT22;14792;50.886;6.468;2024-03-06T06:39:34;3.30;99.90
27306;DHT22;14792;50.886;6.468;2024-03-06T06:42:35;3.40;99.90
27306;DHT22;14792;50.886;6.468;2024-03-06T06:45:37;3.50;99.90
27306;DHT22;14792;50.886;6.468;2024-03-06T06:48:39;3.50;99.90
27306;DHT22;14792;50.886;6.468;2024-03-06T06:51:40;3.60;99.90
27306;DHT22;14792;50.886;6.468;2024-03-06T06:54:42;3.70;99.90
27306;DHT22;14792;50.886;6.468;2024-03-06T06:57:43;3.80;99.90
27306;DHT22;14792;50.886;6.468;2024-03-06T07:00:45;3.90;99.90
27306;DHT22;14792;50.886;6.468;2024-03-06T07:03:47;4.00;99.90
27306;DHT22;14792;50.886;6.468;2024-03-06T07:06:48;4.10;99.90
27306;DHT22;14792;50.886;6.468;2024-03-06T07:09:50;4.20;99.90
27306;DHT22;14792;50.886;6.468;2024-03-06T07:12:51;4.20;99.90
27306;DHT22;14792;50.886;6.468;2024-03-06T07:15:53;4.30;99.90
27306;DHT22;14792;50.886;6.468;2024-03-06T07:18:54;4.40;99.90
27306;DHT22;14792;50.886;6.468;2024-03-06T07:21:56;4.60;99.90
27306;DHT22;14792;50.886;6.468;2024-03-06T07:24:58;4.70;99.90
27306;DHT22;14792;50.886;6.468;2024-03-06T07:27:59;4.80;99.90
27306;DHT22;14792;50.886;6.468;2024-03-06T07:31:01;4.90;99.90
27306;DHT22;14792;50.886;6.468;2024-03-06T07:34:02;5.00;99.90
27306;DHT22;14792;50.886;6.468;2024-03-06T07:37:04;5.10;99.90
27306;DHT22;14792;50.886;6.468;2024-03-06T07:40:18;5.30;99.90
27306;DHT22;14792;50.886;6.468;2024-03-06T07:43:19;5.40;99.90
27306;DHT22;14792;50.886;6.468;2024-03-06T07:46:21;5.60;99.90
27306;DHT22;14792;50.886;6.468;2024-03-06T07:49:22;5.70;99.90
27306;DHT22;14792;50.886;6.468;2024-03-06T07:52:24;5.90;99.90
27306;DHT22;14792;50.886;6.468;2024-03-06T07:55:25;6.20;99.90
27306;DHT22;14792;50.886;6.468;2024-03-06T07:58:27;6.50;99.90
27306;DHT22;14792;50.886;6.468;2024-03-06T08:01:29;6.60;99.90
27306;DHT22;14792;50.886;6.468;2024-03-06T08:04:30;6.90;99.90
27306;DHT22;14792;50.886;6.468;2024-03-06T08:07:32;7.20;99.90
27306;DHT22;14792;50.886;6.468;2024-03-06T08:10:33;7.40;99.90
27306;DHT22;14792;50.886;6.468;2024-03-06T08:13:35;7.70;99.90
27306;DHT22;14792;50.886;6.468;2024-03-06T08:16:37;7.80;99.90
27306;DHT22;14792;50.886;6.468;2024-03-06T08:19:38;8.00;99.90
27306;DHT22;14792;50.886;6.468;2024-03-06T08:22:41;7.90;99.90
27306;DHT22;14792;50.886;6.468;2024-03-06T08:25:41;8.10;99.90
27306;DHT22;14792;50.886;6.468;2024-03-06T08:28:43;8.20;99.90
27306;DHT22;14792;50.886;6.468;2024-03-06T08:31:44;8.30;99.90
27306;DHT22;14792;50.886;6.468;2024-03-06T08:34:46;8.60;99.90
27306;DHT22;14792;50.886;6.468;2024-03-06T08:37:48;8.90;99.90
27306;DHT22;14792;50.886;6.468;2024-03-06T08:40:49;9.10;99.90
27306;DHT22;14792;50.886;6.468;2024-03-06T08:43:51;9.30;99.90
27306;DHT22;14792;50.886;6.468;2024-03-06T08:46:52;9.30;99.90
27306;DHT22;14792;50.886;6.468;2024-03-06T08:49:54;9.50;99.90
27306;DHT22;14792;50.886;6.468;2024-03-06T08:52:56;9.60;99.90
27306;DHT22;14792;50.886;6.468;2024-03-06T08:55:57;9.80;99.90
27306;DHT22;14792;50.886;6.468;2024-03-06T08:58:59;9.90;99.90
27306;DHT22;14792;50.886;6.468;2024-03-06T09:02:18;10.00;99.90
27306;DHT22;14792;50.886;6.468;2024-03-06T09:05:20;9.90;99.90
27306;DHT22;14792;50.886;6.468;2024-03-06T09:08:21;9.90;99.90
27306;DHT22;14792;50.886;6.468;2024-03-06T09:11:23;10.10;99.90
27306;DHT22;14792;50.886;6.468;2024-03-06T09:14:25;10.10;99.90
27306;DHT22;14792;50.886;6.468;2024-03-06T09:17:26;10.00;99.90
27306;DHT22;14792;50.886;6.468;2024-03-06T09:20:28;10.20;99.90
27306;DHT22;14792;50.886;6.468;2024-03-06T09:23:31;10.20;99.90
27306;DHT22;14792;50.886;6.468;2024-03-06T09:26:32;10.40;99.90
27306;DHT22;14792;50.886;6.468;2024-03-06T09:29:34;10.60;99.90
27306;DHT22;14792;50.886;6.468;2024-03-06T09:32:37;10.90;99.90
27306;DHT22;14792;50.886;6.468;2024-03-06T09:35:37;11.00;99.90
27306;DHT22;14792;50.886;6.468;2024-03-06T09:38:39;11.20;99.90
27306;DHT22;14792;50.886;6.468;2024-03-06T09:41:40;11.10;99.90
27306;DHT22;14792;50.886;6.468;2024-03-06T09:44:42;11.00;99.90
27306;DHT22;14792;50.886;6.468;2024-03-06T09:47:43;11.00;99.90
27306;DHT22;14792;50.886;6.468;2024-03-06T09:50:45;11.20;99.90
27306;DHT22;14792;50.886;6.468;2024-03-06T09:53:47;11.20;99.90
27306;DHT22;14792;50.886;6.468;2024-03-06T09:56:48;11.40;99.90
27306;DHT22;14792;50.886;6.468;2024-03-06T09:59:50;11.70;99.90
27306;DHT22;14792;50.886;6.468;2024-03-06T10:02:57;11.50;99.90
27306;DHT22;14792;50.886;6.468;2024-03-06T10:05:53;11.60;99.90
27306;DHT22;14792;50.886;6.468;2024-03-06T10:08:55;11.40;99.90
27306;DHT22;14792;50.886;6.468;2024-03-06T10:11:56;11.30;99.90
27306;DHT22;14792;50.886;6.468;2024-03-06T10:14:58;11.30;99.90
27306;DHT22;14792;50.886;6.468;2024-03-06T10:18:15;11.50;99.90
27306;DHT22;14792;50.886;6.468;2024-03-06T10:21:16;11.70;99.90
27306;DHT22;14792;50.886;6.468;2024-03-06T10:24:18;11.60;99.90
27306;DHT22;14792;50.886;6.468;2024-03-06T10:27:19;11.60;99.90
27306;DHT22;14792;50.886;6.468;2024-03-06T10:30:21;11.60;99.90
27306;DHT22;14792;50.886;6.468;2024-03-06T10:33:23;11.60;99.90
27306;DHT22;14792;50.886;6.468;2024-03-06T10:36:27;11.50;99.90
27306;DHT22;14792;50.886;6.468;2024-03-06T10:39:28;11.90;99.90
27306;DHT22;14792;50.886;6.468;2024-03-06T10:42:30;12.00;99.90
27306;DHT22;14792;50.886;6.468;2024-03-06T10:48:39;11.90;99.90
27306;DHT22;14792;50.886;6.468;2024-03-06T10:51:41;12.00;99.90
27306;DHT22;14792;50.886;6.468;2024-03-06T10:54:42;12.20;99.90
27306;DHT22;14792;50.886;6.468;2024-03-06T10:57:44;12.30;99.90
27306;DHT22;14792;50.886;6.468;2024-03-06T11:00:46;12.50;99.90
27306;DHT22;14792;50.886;6.468;2024-03-06T11:03:47;12.50;99.90
27306;DHT22;14792;50.886;6.468;2024-03-06T11:06:49;12.60;99.90
27306;DHT22;14792;50.886;6.468;2024-03-06T11:09:50;12.50;99.90
27306;DHT22;14792;50.886;6.468;2024-03-06T11:12:52;12.60;99.90
27306;DHT22;14792;50.886;6.468;2024-03-06T11:15:56;12.80;99.90
27306;DHT22;14792;50.886;6.468;2024-03-06T11:19:07;12.70;99.90
27306;DHT22;14792;50.886;6.468;2024-03-06T11:22:06;12.80;99.90
27306;DHT22;14792;50.886;6.468;2024-03-06T11:25:07;12.70;99.90
27306;DHT22;14792;50.886;6.468;2024-03-06T11:28:18;12.80;99.90
27306;DHT22;14792;50.886;6.468;2024-03-06T11:31:19;13.00;99.90
27306;DHT22;14792;50.886;6.468;2024-03-06T11:34:21;13.10;99.90
27306;DHT22;14792;50.886;6.468;2024-03-06T11:37:23;13.20;99.90
27306;DHT22;14792;50.886;6.468;2024-03-06T11:40:24;13.20;99.90
27306;DHT22;14792;50.886;6.468;2024-03-06T11:43:26;13.40;99.90
27306;DHT22;14792;50.886;6.468;2024-03-06T11:46:46;13.20;99.90
27306;DHT22;14792;50.886;6.468;2024-03-06T11:49:47;13.20;99.90
27306;DHT22;14792;50.886;6.468;2024-03-06T11:52:48;12.90;99.90
27306;DHT22;14792;50.886;6.468;2024-03-06T11:55:50;13.20;99.90
27306;DHT22;14792;50.886;6.468;2024-03-06T11:58:52;12.80;99.90
27306;DHT22;14792;50.886;6.468;2024-03-06T12:01:57;12.90;99.90
27306;DHT22;14792;50.886;6.468;2024-03-06T12:05:01;12.80;99.90
27306;DHT22;14792;50.886;6.468;2024-03-06T12:07:59;12.90;99.90
27306;DHT22;14792;50.886;6.468;2024-03-06T12:11:01;13.30;99.90
27306;DHT22;14792;50.886;6.468;2024-03-06T12:14:02;13.40;99.90
27306;DHT22;14792;50.886;6.468;2024-03-06T12:17:04;13.60;99.90
27306;DHT22;14792;50.886;6.468;2024-03-06T12:20:09;13.90;99.90
27306;DHT22;14792;50.886;6.468;2024-03-06T12:23:07;13.90;99.90
27306;DHT22;14792;50.886;6.468;2024-03-06T12:26:15;13.80;99.90
27306;DHT22;14792;50.886;6.468;2024-03-06T12:29:17;14.00;99.90
27306;DHT22;14792;50.886;6.468;2024-03-06T12:32:19;14.10;99.90
27306;DHT22;14792;50.886;6.468;2024-03-06T12:35:23;13.90;99.90
27306;DHT22;14792;50.886;6.468;2024-03-06T12:38:21;13.30;99.90
27306;DHT22;14792;50.886;6.468;2024-03-06T12:41:23;13.00;99.90
27306;DHT22;14792;50.886;6.468;2024-03-06T12:44:24;12.70;99.90
27306;DHT22;14792;50.886;6.468;2024-03-06T12:47:26;12.50;99.90
27306;DHT22;14792;50.886;6.468;2024-03-06T12:50:28;13.00;99.90
27306;DHT22;14792;50.886;6.468;2024-03-06T12:53:30;13.50;99.90
27306;DHT22;14792;50.886;6.468;2024-03-06T12:56:31;13.60;99.90
27306;DHT22;14792;50.886;6.468;2024-03-06T12:59:33;13.80;99.90
27306;DHT22;14792;50.886;6.468;2024-03-06T13:02:34;14.00;99.90
27306;DHT22;14792;50.886;6.468;2024-03-06T13:05:36;14.30;99.90
27306;DHT22;14792;50.886;6.468;2024-03-06T13:08:38;14.30;99.90
27306;DHT22;14792;50.886;6.468;2024-03-06T13:11:39;14.10;99.90
27306;DHT22;14792;50.886;6.468;2024-03-06T13:14:41;14.00;99.90
27306;DHT22;14792;50.886;6.468;2024-03-06T13:17:42;14.00;99.90
27306;DHT22;14792;50.886;6.468;2024-03-06T13:20:44;13.90;99.90
27306;DHT22;14792;50.886;6.468;2024-03-06T13:23:46;14.00;99.90
27306;DHT22;14792;50.886;6.468;2024-03-06T13:26:47;14.00;99.90
27306;DHT22;14792;50.886;6.468;2024-03-06T13:29:49;13.90;99.90
27306;DHT22;14792;50.886;6.468;2024-03-06T13:32:50;13.70;99.90
27306;DHT22;14792;50.886;6.468;2024-03-06T13:35:52;13.70;99.90
27306;DHT22;14792;50.886;6.468;2024-03-06T13:38:53;14.20;99.90
27306;DHT22;14792;50.886;6.468;2024-03-06T13:41:55;14.50;99.90
27306;DHT22;14792;50.886;6.468;2024-03-06T13:44:57;14.80;99.90
27306;DHT22;14792;50.886;6.468;2024-03-06T13:48:00;14.70;99.90
27306;DHT22;14792;50.886;6.468;2024-03-06T13:51:01;14.50;99.90
27306;DHT22;14792;50.886;6.468;2024-03-06T13:54:03;14.60;99.90
27306;DHT22;14792;50.886;6.468;2024-03-06T13:57:05;14.70;99.90
27306;DHT22;14792;50.886;6.468;2024-03-06T14:00:09;14.80;99.90
27306;DHT22;14792;50.886;6.468;2024-03-06T14:03:17;14.60;99.90
27306;DHT22;14792;50.886;6.468;2024-03-06T14:06:18;14.50;99.90
27306;DHT22;14792;50.886;6.468;2024-03-06T14:09:20;14.20;99.90
27306;DHT22;14792;50.886;6.468;2024-03-06T14:12:21;14.60;99.90
27306;DHT22;14792;50.886;6.468;2024-03-06T14:15:23;14.60;99.90
27306;DHT22;14792;50.886;6.468;2024-03-06T14:18:25;14.50;99.90
27306;DHT22;14792;50.886;6.468;2024-03-06T14:21:26;14.30;99.90
27306;DHT22;14792;50.886;6.468;2024-03-06T14:24:30;14.50;99.90
27306;DHT22;14792;50.886;6.468;2024-03-06T14:27:32;14.30;99.90
27306;DHT22;14792;50.886;6.468;2024-03-06T14:30:33;14.30;99.90
27306;DHT22;14792;50.886;6.468;2024-03-06T14:33:35;14.40;99.90
27306;DHT22;14792;50.886;6.468;2024-03-06T14:36:36;14.50;99.90
27306;DHT22;14792;50.886;6.468;2024-03-06T14:39:38;14.40;99.90
27306;DHT22;14792;50.886;6.468;2024-03-06T14:42:40;14.40;99.90
27306;DHT22;14792;50.886;6.468;2024-03-06T14:45:41;14.50;99.90
27306;DHT22;14792;50.886;6.468;2024-03-06T14:48:43;14.80;99.90
27306;DHT22;14792;50.886;6.468;2024-03-06T14:51:44;14.80;99.90
27306;DHT22;14792;50.886;6.468;2024-03-06T14:54:46;14.80;99.90
27306;DHT22;14792;50.886;6.468;2024-03-06T14:57:48;14.60;99.90
27306;DHT22;14792;50.886;6.468;2024-03-06T15:00:49;14.60;99.90
27306;DHT22;14792;50.886;6.468;2024-03-06T15:03:54;14.40;99.90
27306;DHT22;14792;50.886;6.468;2024-03-06T15:06:55;14.20;99.90
27306;DHT22;14792;50.886;6.468;2024-03-06T15:09:57;14.20;99.90
27306;DHT22;14792;50.886;6.468;2024-03-06T15:12:58;14.10;99.90
27306;DHT22;14792;50.886;6.468;2024-03-06T15:16:00;13.90;99.90
27306;DHT22;14792;50.886;6.468;2024-03-06T15:19:02;13.90;99.90
27306;DHT22;14792;50.886;6.468;2024-03-06T15:22:03;14.00;99.90
27306;DHT22;14792;50.886;6.468;2024-03-06T15:49:19;13.80;99.90
27306;DHT22;14792;50.886;6.468;2024-03-06T15:53:15;13.70;99.90
27306;DHT22;14792;50.886;6.468;2024-03-06T16:12:15;13.30;99.90
27306;DHT22;14792;50.886;6.468;2024-03-06T16:19:16;12.80;99.90
27306;DHT22;14792;50.886;6.468;2024-03-06T16:42:04;12.10;99.90
27306;DHT22;14792;50.886;6.468;2024-03-06T16:45:06;12.00;99.90
27306;DHT22;14792;50.886;6.468;2024-03-06T16:48:08;11.90;99.90
27306;DHT22;14792;50.886;6.468;2024-03-06T16:51:09;11.80;99.90
27306;DHT22;14792;50.886;6.468;2024-03-06T16:54:12;11.70;99.90
27306;DHT22;14792;50.886;6.468;2024-03-06T16:57:12;11.60;99.90
27306;DHT22;14792;50.886;6.468;2024-03-06T17:00:14;11.40;99.90
27306;DHT22;14792;50.886;6.468;2024-03-06T17:03:16;11.40;99.90
27306;DHT22;14792;50.886;6.468;2024-03-06T17:06:17;11.20;99.90
27306;DHT22;14792;50.886;6.468;2024-03-06T17:09:19;11.10;99.90
27306;DHT22;14792;50.886;6.468;2024-03-06T17:12:20;11.00;99.90
27306;DHT22;14792;50.886;6.468;2024-03-06T17:15:22;11.00;99.90
27306;DHT22;14792;50.886;6.468;2024-03-06T17:18:24;10.90;99.90
27306;DHT22;14792;50.886;6.468;2024-03-06T17:21:25;10.80;99.90
27306;DHT22;14792;50.886;6.468;2024-03-06T17:24:27;10.70;99.90
27306;DHT22;14792;50.886;6.468;2024-03-06T17:27:29;10.40;99.90
27306;DHT22;14792;50.886;6.468;2024-03-06T17:30:30;10.30;99.90
27306;DHT22;14792;50.886;6.468;2024-03-06T17:33:32;10.20;99.90
27306;DHT22;14792;50.886;6.468;2024-03-06T17:36:33;10.20;99.90
27306;DHT22;14792;50.886;6.468;2024-03-06T17:39:35;10.10;99.90
27306;DHT22;14792;50.886;6.468;2024-03-06T17:42:37;10.00;99.90
27306;DHT22;14792;50.886;6.468;2024-03-06T17:45:38;10.00;99.90
27306;DHT22;14792;50.886;6.468;2024-03-06T17:48:40;9.90;99.90
27306;DHT22;14792;50.886;6.468;2024-03-06T17:51:41;9.80;99.90
27306;DHT22;14792;50.886;6.468;2024-03-06T17:54:43;9.80;99.90
27306;DHT22;14792;50.886;6.468;2024-03-06T17:57:44;9.80;99.90
27306;DHT22;14792;50.886;6.468;2024-03-06T18:00:49;9.70;99.90
27306;DHT22;14792;50.886;6.468;2024-03-06T18:03:50;9.60;99.90
27306;DHT22;14792;50.886;6.468;2024-03-06T18:06:52;9.60;99.90
27306;DHT22;14792;50.886;6.468;2024-03-06T18:09:53;9.60;99.90
27306;DHT22;14792;50.886;6.468;2024-03-06T18:12:55;9.50;99.90
27306;DHT22;14792;50.886;6.468;2024-03-06T18:15:57;9.50;99.90
27306;DHT22;14792;50.886;6.468;2024-03-06T18:18:58;9.40;99.90
27306;DHT22;14792;50.886;6.468;2024-03-06T18:22:00;9.40;99.90
27306;DHT22;14792;50.886;6.468;2024-03-06T18:25:01;9.30;99.90
27306;DHT22;14792;50.886;6.468;2024-03-06T18:28:03;9.20;99.90
27306;DHT22;14792;50.886;6.468;2024-03-06T18:31:04;9.20;99.90
27306;DHT22;14792;50.886;6.468;2024-03-06T18:34:06;9.10;99.90
27306;DHT22;14792;50.886;6.468;2024-03-06T18:37:08;9.00;99.90
27306;DHT22;14792;50.886;6.468;2024-03-06T18:40:10;8.90;99.90
27306;DHT22;14792;50.886;6.468;2024-03-06T18:43:11;8.70;99.90
27306;DHT22;14792;50.886;6.468;2024-03-06T18:46:13;8.50;99.90
27306;DHT22;14792;50.886;6.468;2024-03-06T18:49:14;8.40;99.90
27306;DHT22;14792;50.886;6.468;2024-03-06T18:52:16;8.40;99.90
27306;DHT22;14792;50.886;6.468;2024-03-06T18:55:17;8.40;99.90
27306;DHT22;14792;50.886;6.468;2024-03-06T18:58:19;8.30;99.90
27306;DHT22;14792;50.886;6.468;2024-03-06T19:01:21;8.20;99.90
27306;DHT22;14792;50.886;6.468;2024-03-06T19:04:22;8.20;99.90
27306;DHT22;14792;50.886;6.468;2024-03-06T19:07:24;8.20;99.90
27306;DHT22;14792;50.886;6.468;2024-03-06T19:10:25;8.20;99.90
27306;DHT22;14792;50.886;6.468;2024-03-06T19:13:27;8.10;99.90
27306;DHT22;14792;50.886;6.468;2024-03-06T19:16:28;8.10;99.90
27306;DHT22;14792;50.886;6.468;2024-03-06T19:19:30;8.00;99.90
27306;DHT22;14792;50.886;6.468;2024-03-06T19:22:32;8.00;99.90
27306;DHT22;14792;50.886;6.468;2024-03-06T19:25:33;8.00;99.90
27306;DHT22;14792;50.886;6.468;2024-03-06T19:28:35;7.90;99.90
27306;DHT22;14792;50.886;6.468;2024-03-06T19:31:36;8.00;99.90
27306;DHT22;14792;50.886;6.468;2024-03-06T19:34:38;8.00;99.90
27306;DHT22;14792;50.886;6.468;2024-03-06T19:37:40;7.90;99.90
27306;DHT22;14792;50.886;6.468;2024-03-06T19:40:41;7.90;99.90
27306;DHT22;14792;50.886;6.468;2024-03-06T19:43:43;7.90;99.90
27306;DHT22;14792;50.886;6.468;2024-03-06T19:46:44;7.80;99.90
27306;DHT22;14792;50.886;6.468;2024-03-06T19:49:46;7.80;99.90
27306;DHT22;14792;50.886;6.468;2024-03-06T19:52:48;7.70;99.90
27306;DHT22;14792;50.886;6.468;2024-03-06T19:55:49;7.70;99.90
27306;DHT22;14792;50.886;6.468;2024-03-06T19:58:51;7.70;99.90
27306;DHT22;14792;50.886;6.468;2024-03-06T20:01:52;7.60;99.90
27306;DHT22;14792;50.886;6.468;2024-03-06T20:04:54;7.60;99.90
27306;DHT22;14792;50.886;6.468;2024-03-06T20:07:55;7.70;99.90
27306;DHT22;14792;50.886;6.468;2024-03-06T20:10:57;7.70;99.90
27306;DHT22;14792;50.886;6.468;2024-03-06T20:13:59;7.70;99.90
27306;DHT22;14792;50.886;6.468;2024-03-06T20:17:00;7.70;99.90
27306;DHT22;14792;50.886;6.468;2024-03-06T20:20:02;7.80;99.90
27306;DHT22;14792;50.886;6.468;2024-03-06T20:23:03;7.80;99.90
27306;DHT22;14792;50.886;6.468;2024-03-06T20:26:07;7.80;99.90
27306;DHT22;14792;50.886;6.468;2024-03-06T20:29:09;7.70;99.90